Time;durP1;ratioP1;P1;durP2;ratioP2;P2;SDS_P1;SDS_P2;PMS_P1;PMS_P2;Temp;Humidity;BMP_temperature;BMP_pressure;BME280_temperature;BME280_humidity;BME280_pressure;Samples;Min_cycle;Max_cycle;Signal;HPM_P1;HPM_P2
2022/10/06 00:00:00;;;;;;;1.90;1.67;;;;;;;;;;5060026;28;20640;-61
2022/10/06 00:02:28;;;;;;;2.37;1.83;;;;;;;;;;5058166;28;20730;-65
2022/10/06 00:04:56;;;;;;;3.63;2.10;;;;;;;;;;5052506;28;20217;-64
2022/10/06 00:07:23;;;;;;;2.57;1.80;;;;;;;;;;5062134;28;20236;-63
2022/10/06 00:09:51;;;;;;;3.00;1.83;;;;;;;;;;5065460;28;20288;-64
2022/10/06 00:12:18;;;;;;;5.43;1.97;;;;;;;;;;5045912;28;20757;-62
2022/10/06 00:14:46;;;;;;;2.33;2.13;;;;;;;;;;5058459;28;20201;-62
2022/10/06 00:17:13;;;;;;;2.40;2.20;;;;;;;;;;5056694;28;20239;-61
2022/10/06 00:19:40;;;;;;;3.57;2.40;;;;;;;;;;5069715;28;20288;-63
2022/10/06 00:22:07;;;;;;;3.70;2.10;;;;;;;;;;5048581;28;20201;-63
2022/10/06 00:24:35;;;;;;;4.13;2.60;;;;;;;;;;5055459;28;20675;-64
2022/10/06 00:27:02;;;;;;;2.37;2.20;;;;;;;;;;5052983;28;20578;-62
2022/10/06 00:29:29;;;;;;;2.30;2.10;;;;;;;;;;5050251;28;20834;-62
2022/10/06 00:31:57;;;;;;;1.87;1.73;;;;;;;;;;5068744;28;20225;-62
2022/10/06 00:34:24;;;;;;;1.90;1.80;;;;;;;;;;5056483;28;20227;-63
2022/10/06 00:36:52;;;;;;;3.70;2.00;;;;;;;;;;5073775;28;20276;-62
2022/10/06 00:39:19;;;;;;;2.10;2.00;;;;;;;;;;5063281;28;20243;-62
2022/10/06 00:41:46;;;;;;;2.53;2.00;;;;;;;;;;5064131;28;20209;-65
2022/10/06 00:44:14;;;;;;;3.33;2.00;;;;;;;;;;5062210;28;20304;-62
2022/10/06 00:46:47;;;;;;;2.40;2.20;;;;;;;;;;5057740;28;20225;-62
2022/10/06 00:49:14;;;;;;;2.70;2.13;;;;;;;;;;5056357;28;20235;-62
2022/10/06 00:51:44;;;;;;;3.17;2.17;;;;;;;;;;5053859;28;20613;-62
2022/10/06 00:54:11;;;;;;;4.20;1.90;;;;;;;;;;5052766;28;20194;-62
2022/10/06 00:56:39;;;;;;;2.90;1.90;;;;;;;;;;5081479;28;20304;-61
2022/10/06 00:59:14;;;;;;;4.23;2.00;;;;;;;;;;5064214;28;20292;-64
2022/10/06 01:01:44;;;;;;;2.17;2.07;;;;;;;;;;5070912;28;20229;-64
2022/10/06 01:04:13;;;;;;;3.37;1.60;;;;;;;;;;5068814;28;20205;-64
2022/10/06 01:06:46;;;;;;;2.37;1.70;;;;;;;;;;5066645;28;20340;-63
2022/10/06 01:09:16;;;;;;;3.93;1.97;;;;;;;;;;5066855;28;20201;-62
2022/10/06 01:11:44;;;;;;;2.33;2.00;;;;;;;;;;5062589;28;20217;-63
2022/10/06 01:14:12;;;;;;;6.43;2.60;;;;;;;;;;5052498;28;20202;-63
2022/10/06 01:16:40;;;;;;;3.13;1.90;;;;;;;;;;5068168;28;20243;-62
2022/10/06 01:19:12;;;;;;;2.77;2.30;;;;;;;;;;5064763;28;20922;-63
2022/10/06 01:21:43;;;;;;;3.27;2.00;;;;;;;;;;5056684;28;20626;-63
2022/10/06 01:24:11;;;;;;;1.93;1.83;;;;;;;;;;5062367;28;20209;-65
2022/10/06 01:26:41;;;;;;;3.00;2.10;;;;;;;;;;5060009;28;20718;-62
2022/10/06 01:29:09;;;;;;;4.13;3.10;;;;;;;;;;5054002;28;20297;-62
2022/10/06 01:31:37;;;;;;;7.33;4.30;;;;;;;;;;5062881;28;20801;-62
2022/10/06 01:34:04;;;;;;;5.97;4.00;;;;;;;;;;5064146;28;20811;-62
2022/10/06 01:36:31;;;;;;;4.73;3.53;;;;;;;;;;5063154;28;20221;-63
2022/10/06 01:38:59;;;;;;;5.63;3.73;;;;;;;;;;5059871;28;20332;-63
2022/10/06 01:41:26;;;;;;;10.70;5.03;;;;;;;;;;5055854;28;20693;-64
2022/10/06 01:43:53;;;;;;;5.13;3.07;;;;;;;;;;5057363;28;20236;-65
2022/10/06 01:46:21;;;;;;;3.90;2.40;;;;;;;;;;5066775;28;20227;-62
2022/10/06 01:48:48;;;;;;;2.73;2.40;;;;;;;;;;5057313;28;20210;-64
2022/10/06 01:51:15;;;;;;;2.53;2.33;;;;;;;;;;5078763;28;20256;-64
2022/10/06 01:53:43;;;;;;;3.47;2.40;;;;;;;;;;5070645;28;20238;-63
2022/10/06 01:56:10;;;;;;;2.57;2.10;;;;;;;;;;5064565;28;20248;-64
2022/10/06 01:58:37;;;;;;;2.23;2.03;;;;;;;;;;5064114;28;20197;-63
2022/10/06 02:01:08;;;;;;;1.90;1.80;;;;;;;;;;5065524;28;20208;-63
2022/10/06 02:03:37;;;;;;;7.83;2.53;;;;;;;;;;5070642;28;20237;-64
2022/10/06 02:06:05;;;;;;;3.03;2.30;;;;;;;;;;5071871;28;20737;-63
2022/10/06 02:08:33;;;;;;;3.77;2.63;;;;;;;;;;5057438;28;20676;-63
2022/10/06 02:11:08;;;;;;;2.20;2.10;;;;;;;;;;5077418;28;20301;-63
2022/10/06 02:13:36;;;;;;;3.60;2.10;;;;;;;;;;5022379;28;1186208;-63
2022/10/06 02:16:05;;;;;;;2.50;2.30;;;;;;;;;;5065064;28;20379;-63
2022/10/06 02:18:33;;;;;;;3.30;2.37;;;;;;;;;;5081150;28;20213;-63
2022/10/06 02:21:01;;;;;;;2.90;2.00;;;;;;;;;;5064023;28;20287;-62
2022/10/06 02:23:29;;;;;;;2.27;2.07;;;;;;;;;;5060884;28;20216;-63
2022/10/06 02:26:00;;;;;;;3.97;2.20;;;;;;;;;;5062694;28;20225;-63
2022/10/06 02:28:28;;;;;;;2.10;2.00;;;;;;;;;;5064625;28;20233;-64
2022/10/06 02:31:06;;;;;;;5.33;2.20;;;;;;;;;;5050925;28;20233;-65
2022/10/06 02:33:33;;;;;;;2.43;2.20;;;;;;;;;;5058452;28;20248;-64
2022/10/06 02:36:01;;;;;;;3.10;2.00;;;;;;;;;;5084125;28;20228;-63
2022/10/06 02:38:29;;;;;;;2.67;2.33;;;;;;;;;;5060026;28;20198;-64
2022/10/06 02:40:57;;;;;;;3.33;2.30;;;;;;;;;;5058280;28;20213;-64
2022/10/06 02:43:29;;;;;;;3.40;2.30;;;;;;;;;;5053376;28;20206;-65
2022/10/06 02:45:57;;;;;;;2.27;2.00;;;;;;;;;;5053603;28;20312;-64
2022/10/06 02:48:25;;;;;;;4.30;2.17;;;;;;;;;;5069380;28;20207;-64
2022/10/06 02:51:06;;;;;;;2.20;1.83;;;;;;;;;;5057318;28;20270;-64
2022/10/06 02:53:34;;;;;;;4.47;2.20;;;;;;;;;;5059484;28;20233;-64
2022/10/06 02:56:02;;;;;;;2.30;2.10;;;;;;;;;;5057783;28;20309;-64
2022/10/06 02:58:33;;;;;;;3.97;2.40;;;;;;;;;;5064542;28;20284;-64
2022/10/06 03:01:01;;;;;;;3.43;2.17;;;;;;;;;;5066233;28;20323;-64
2022/10/06 03:03:29;;;;;;;1.83;1.73;;;;;;;;;;5061344;28;20682;-63
2022/10/06 03:06:00;;;;;;;2.23;2.00;;;;;;;;;;5056017;28;20301;-63
2022/10/06 03:08:28;;;;;;;2.70;2.50;;;;;;;;;;5068029;28;20738;-63
2022/10/06 03:11:00;;;;;;;3.40;2.40;;;;;;;;;;5069525;28;20214;-63
2022/10/06 03:13:28;;;;;;;4.80;2.30;;;;;;;;;;5064142;28;20340;-63
2022/10/06 03:15:56;;;;;;;2.90;2.13;;;;;;;;;;5061766;28;20597;-64
2022/10/06 03:18:24;;;;;;;2.10;1.80;;;;;;;;;;5055882;28;20670;-63
2022/10/06 03:20:52;;;;;;;3.73;2.17;;;;;;;;;;5058968;28;20711;-63
2022/10/06 03:23:20;;;;;;;5.13;2.40;;;;;;;;;;5057067;28;20294;-63
2022/10/06 03:25:55;;;;;;;2.83;2.33;;;;;;;;;;5047487;28;20602;-64
2022/10/06 03:28:22;;;;;;;4.70;2.17;;;;;;;;;;5060452;28;20209;-64
2022/10/06 03:30:50;;;;;;;2.53;2.10;;;;;;;;;;5056226;28;20221;-64
2022/10/06 03:33:17;;;;;;;2.73;2.00;;;;;;;;;;5061720;28;20229;-63
2022/10/06 03:35:45;;;;;;;2.03;1.93;;;;;;;;;;5051393;28;20293;-64
2022/10/06 03:38:12;;;;;;;3.23;2.20;;;;;;;;;;5052986;28;20198;-64
2022/10/06 03:40:39;;;;;;;5.97;2.40;;;;;;;;;;5058684;28;20214;-63
2022/10/06 03:43:08;;;;;;;2.73;1.93;;;;;;;;;;5074890;28;20210;-64
2022/10/06 03:45:36;;;;;;;2.63;2.10;;;;;;;;;;5063523;28;20328;-64
2022/10/06 03:48:03;;;;;;;3.90;2.20;;;;;;;;;;5074584;28;20297;-64
2022/10/06 03:50:30;;;;;;;3.50;2.53;;;;;;;;;;5059465;28;20287;-64
2022/10/06 03:52:58;;;;;;;4.00;2.10;;;;;;;;;;5065010;28;20315;-63
2022/10/06 03:55:25;;;;;;;2.77;2.07;;;;;;;;;;5061776;28;20205;-63
2022/10/06 03:57:52;;;;;;;2.67;2.03;;;;;;;;;;5061776;28;20201;-64
2022/10/06 04:00:20;;;;;;;2.87;2.07;;;;;;;;;;5063110;28;20245;-64
2022/10/06 04:02:49;;;;;;;2.70;2.10;;;;;;;;;;5062465;28;20211;-64
2022/10/06 04:05:16;;;;;;;3.63;2.50;;;;;;;;;;5062893;28;20312;-63
2022/10/06 04:07:43;;;;;;;4.13;2.30;;;;;;;;;;5059152;28;20202;-63
2022/10/06 04:10:10;;;;;;;3.97;2.30;;;;;;;;;;5061365;28;20285;-63
2022/10/06 04:12:37;;;;;;;3.10;2.33;;;;;;;;;;5057440;28;20278;-63
2022/10/06 04:15:05;;;;;;;7.33;2.30;;;;;;;;;;5055557;28;23538;-63
2022/10/06 04:17:32;;;;;;;3.47;2.23;;;;;;;;;;5062383;28;20317;-64
2022/10/06 04:20:00;;;;;;;4.40;2.20;;;;;;;;;;5073907;28;20208;-64
2022/10/06 04:22:27;;;;;;;5.00;2.07;;;;;;;;;;5057918;28;20205;-62
2022/10/06 04:24:54;;;;;;;3.53;2.00;;;;;;;;;;5053925;28;20801;-62
2022/10/06 04:27:28;;;;;;;3.33;2.17;;;;;;;;;;5056283;28;20221;-62
2022/10/06 04:29:55;;;;;;;3.80;2.20;;;;;;;;;;5073362;28;20206;-62
2022/10/06 04:32:23;;;;;;;2.23;2.03;;;;;;;;;;5054226;28;20227;-62
2022/10/06 04:34:50;;;;;;;5.50;2.27;;;;;;;;;;5053648;28;20301;-62
2022/10/06 04:37:17;;;;;;;2.50;2.30;;;;;;;;;;5052178;28;20606;-62
2022/10/06 04:39:45;;;;;;;4.77;2.00;;;;;;;;;;5040003;28;20224;-63
2022/10/06 04:42:12;;;;;;;3.00;2.20;;;;;;;;;;5061785;28;20761;-62
2022/10/06 04:44:39;;;;;;;3.50;2.40;;;;;;;;;;5051948;28;20225;-62
2022/10/06 04:47:07;;;;;;;3.33;2.10;;;;;;;;;;5049488;28;20286;-63
2022/10/06 04:49:34;;;;;;;4.33;2.23;;;;;;;;;;5043398;28;20203;-63
2022/10/06 04:52:01;;;;;;;3.40;2.30;;;;;;;;;;5041794;28;20735;-63
2022/10/06 04:54:29;;;;;;;4.03;2.20;;;;;;;;;;5042268;28;20813;-63
2022/10/06 04:57:00;;;;;;;4.87;2.20;;;;;;;;;;5074237;28;20225;-63
2022/10/06 05:02:13;;;;;;;4.17;2.50;;;;;;;;;;5054872;28;20411;-63
2022/10/06 05:04:41;;;;;;;5.53;2.70;;;;;;;;;;5043849;28;20244;-63
2022/10/06 05:07:09;;;;;;;5.17;2.37;;;;;;;;;;5046966;28;21146;-64
2022/10/06 05:09:37;;;;;;;2.40;2.20;;;;;;;;;;5049268;28;20205;-63
2022/10/06 05:12:05;;;;;;;4.07;2.43;;;;;;;;;;5041059;28;20255;-63
2022/10/06 05:14:32;;;;;;;4.43;2.53;;;;;;;;;;5042127;28;20240;-63
2022/10/06 05:16:59;;;;;;;5.03;2.57;;;;;;;;;;5041382;28;20316;-63
2022/10/06 05:19:27;;;;;;;3.63;2.40;;;;;;;;;;5038173;28;20209;-63
2022/10/06 05:21:54;;;;;;;7.30;2.90;;;;;;;;;;5037705;28;20208;-63
2022/10/06 05:24:21;;;;;;;4.87;2.63;;;;;;;;;;5036971;28;20208;-63
2022/10/06 05:26:49;;;;;;;2.70;2.50;;;;;;;;;;5052121;28;20220;-63
2022/10/06 05:29:16;;;;;;;4.50;2.43;;;;;;;;;;5046498;28;20205;-63
2022/10/06 05:31:44;;;;;;;3.50;2.37;;;;;;;;;;5056473;28;20218;-63
2022/10/06 05:34:11;;;;;;;3.73;2.50;;;;;;;;;;5048884;28;20226;-63
2022/10/06 05:36:39;;;;;;;5.50;2.73;;;;;;;;;;5052982;28;20217;-63
2022/10/06 05:39:06;;;;;;;2.80;2.10;;;;;;;;;;5065888;28;20201;-63
2022/10/06 05:41:36;;;;;;;4.80;2.43;;;;;;;;;;5057882;28;20311;-62
2022/10/06 05:44:05;;;;;;;5.53;2.20;;;;;;;;;;5048691;28;20225;-62
2022/10/06 05:46:33;;;;;;;2.60;2.40;;;;;;;;;;5053366;28;20695;-62
2022/10/06 05:49:02;;;;;;;2.77;2.50;;;;;;;;;;5054998;28;20847;-62
2022/10/06 05:51:30;;;;;;;4.07;2.70;;;;;;;;;;5045233;28;20278;-62
2022/10/06 05:53:58;;;;;;;4.97;2.67;;;;;;;;;;5055709;28;21327;-64
2022/10/06 05:56:27;;;;;;;5.50;2.80;;;;;;;;;;5059384;28;20268;-63
2022/10/06 05:58:55;;;;;;;5.87;2.83;;;;;;;;;;5057987;28;20210;-66
2022/10/06 06:01:38;;;;;;;5.53;2.53;;;;;;;;;;5051757;28;20693;-64
2022/10/06 06:04:07;;;;;;;5.43;2.70;;;;;;;;;;5052220;28;20255;-64
2022/10/06 06:06:36;;;;;;;3.50;2.60;;;;;;;;;;5055029;28;20229;-63
2022/10/06 06:09:06;;;;;;;9.17;3.40;;;;;;;;;;5056272;28;20301;-64
2022/10/06 06:11:34;;;;;;;5.20;2.80;;;;;;;;;;5060612;28;20689;-64
2022/10/06 06:14:02;;;;;;;4.47;3.03;;;;;;;;;;5052886;28;20615;-63
2022/10/06 06:16:30;;;;;;;4.20;3.20;;;;;;;;;;5051813;28;20226;-62
2022/10/06 06:18:58;;;;;;;5.93;2.47;;;;;;;;;;5048514;28;20216;-63
2022/10/06 06:21:25;;;;;;;5.20;3.93;;;;;;;;;;5065133;28;20201;-63
2022/10/06 06:23:53;;;;;;;7.47;4.83;;;;;;;;;;5080582;28;20216;-63
2022/10/06 06:26:23;;;;;;;7.33;4.53;;;;;;;;;;5071038;28;20316;-64
2022/10/06 06:28:51;;;;;;;20.40;10.30;;;;;;;;;;5060509;28;20201;-64
2022/10/06 06:31:38;;;;;;;19.43;10.27;;;;;;;;;;5056573;28;20220;-65
2022/10/06 06:34:06;;;;;;;14.53;6.83;;;;;;;;;;5063367;28;20819;-62
2022/10/06 06:36:39;;;;;;;12.30;6.03;;;;;;;;;;5062774;28;20346;-63
2022/10/06 06:39:08;;;;;;;12.50;5.70;;;;;;;;;;5058252;28;20218;-62
2022/10/06 06:41:37;;;;;;;11.77;5.30;;;;;;;;;;5067834;28;20445;-63
2022/10/06 06:44:10;;;;;;;13.37;6.00;;;;;;;;;;5061993;28;20223;-62
2022/10/06 06:46:38;;;;;;;8.80;6.00;;;;;;;;;;5063927;28;20235;-63
2022/10/06 06:49:05;;;;;;;10.20;6.33;;;;;;;;;;5055454;28;20245;-62
2022/10/06 06:51:33;;;;;;;9.80;6.40;;;;;;;;;;5053106;28;20240;-63
2022/10/06 06:54:01;;;;;;;11.83;7.27;;;;;;;;;;5045804;28;20254;-62
2022/10/06 06:56:33;;;;;;;12.97;7.10;;;;;;;;;;5059031;28;20230;-64
2022/10/06 06:59:02;;;;;;;10.37;7.10;;;;;;;;;;5057934;28;20206;-62
2022/10/06 07:01:29;;;;;;;11.90;7.57;;;;;;;;;;5060015;28;20296;-64
2022/10/06 07:03:57;;;;;;;11.17;7.40;;;;;;;;;;5035959;28;20214;-64
2022/10/06 07:06:27;;;;;;;13.70;7.03;;;;;;;;;;5038738;28;20221;-64
2022/10/06 07:08:56;;;;;;;10.13;6.30;;;;;;;;;;5059351;28;20213;-64
2022/10/06 07:11:23;;;;;;;6.57;4.60;;;;;;;;;;5053197;28;20271;-63
2022/10/06 07:13:52;;;;;;;7.07;4.37;;;;;;;;;;5052197;28;20221;-64
2022/10/06 07:27:27;;;;;;;5.13;3.42;;;;;;;;;;5052488;28;20286;-63
2022/10/06 07:29:55;;;;;;;5.43;2.97;;;;;;;;;;5061140;28;20723;-63
2022/10/06 07:32:29;;;;;;;3.00;2.70;;;;;;;;;;5058884;28;20213;-63
2022/10/06 07:35:00;;;;;;;4.72;3.22;;;;;;;;;;5057929;28;20908;-63
2022/10/06 07:37:27;;;;;;;5.05;3.10;;;;;;;;;;5051988;28;20323;-63
2022/10/06 07:39:55;;;;;;;8.50;2.88;;;;;;;;;;5049317;28;20255;-64
2022/10/06 07:42:25;;;;;;;3.60;2.47;;;;;;;;;;5061479;28;20236;-64
2022/10/06 07:47:39;;;;;;;4.45;2.78;;;;;;;;;;5062100;28;20244;-64
2022/10/06 07:50:07;;;;;;;3.05;2.60;;;;;;;;;;5067452;28;20332;-64
2022/10/06 07:52:38;;;;;;;5.63;3.70;;;;;;;;;;5054120;28;20288;-64
2022/10/06 07:55:06;;;;;;;5.50;4.07;;;;;;;;;;5056385;28;20315;-62
2022/10/06 07:57:34;;;;;;;5.05;3.38;;;;;;;;;;5054792;28;20707;-64
2022/10/06 08:00:04;;;;;;;4.80;3.78;;;;;;;;;;5057250;28;20687;-64
2022/10/06 08:02:31;;;;;;;4.75;3.67;;;;;;;;;;5051846;28;20209;-63
2022/10/06 08:05:02;;;;;;;4.90;3.67;;;;;;;;;;5069258;28;20214;-64
2022/10/06 08:07:30;;;;;;;5.03;2.85;;;;;;;;;;5058931;28;20703;-64
2022/10/06 08:09:57;;;;;;;5.65;3.00;;;;;;;;;;5050325;28;20255;-64
2022/10/06 08:12:33;;;;;;;5.07;3.40;;;;;;;;;;5052556;28;20209;-64
2022/10/06 08:15:02;;;;;;;6.38;3.40;;;;;;;;;;5058353;28;20228;-63
2022/10/06 08:17:34;;;;;;;4.13;3.10;;;;;;;;;;5060673;28;20304;-64
2022/10/06 08:20:03;;;;;;;4.20;3.35;;;;;;;;;;5066324;28;20201;-64
2022/10/06 08:22:31;;;;;;;3.83;2.95;;;;;;;;;;5062408;28;20232;-63
2022/10/06 08:24:58;;;;;;;6.35;3.30;;;;;;;;;;5061660;28;20205;-65
2022/10/06 08:27:34;;;;;;;6.43;4.28;;;;;;;;;;5057221;28;20674;-63
2022/10/06 08:30:02;;;;;;;11.75;8.00;;;;;;;;;;5059298;28;20298;-62
2022/10/06 08:32:30;;;;;;;13.15;8.32;;;;;;;;;;5049167;28;20572;-62
2022/10/06 08:34:58;;;;;;;10.20;5.88;;;;;;;;;;5054363;28;20226;-63
2022/10/06 08:37:26;;;;;;;12.93;6.80;;;;;;;;;;5055266;28;20658;-64
2022/10/06 08:39:54;;;;;;;22.10;11.60;;;;;;;;;;5063399;28;20955;-63
2022/10/06 08:42:24;;;;;;;5.60;4.32;;;;;;;;;;5062115;28;20197;-65
2022/10/06 08:44:59;;;;;;;5.53;3.83;;;;;;;;;;5053920;28;20637;-64
2022/10/06 08:47:29;;;;;;;5.22;3.67;;;;;;;;;;5072262;28;20601;-65
2022/10/06 08:49:56;;;;;;;4.60;3.85;;;;;;;;;;5052856;28;20204;-64
2022/10/06 08:52:25;;;;;;;6.80;4.22;;;;;;;;;;5058789;28;20228;-64
2022/10/06 08:55:11;;;;;;;11.30;4.35;;;;;;;;;;5056260;28;20706;-64
2022/10/06 08:57:42;;;;;;;7.85;3.90;;;;;;;;;;5056057;28;20566;-64
2022/10/06 09:00:11;;;;;;;5.95;4.25;;;;;;;;;;5052625;28;20675;-63
2022/10/06 09:02:45;;;;;;;6.68;3.53;;;;;;;;;;5055434;28;20293;-63
2022/10/06 09:05:18;;;;;;;5.47;3.55;;;;;;;;;;5048663;28;20216;-63
2022/10/06 09:07:47;;;;;;;5.43;3.75;;;;;;;;;;5056117;28;20211;-63
2022/10/06 09:10:15;;;;;;;7.38;4.20;;;;;;;;;;5055948;28;20412;-63
2022/10/06 09:12:46;;;;;;;8.05;4.53;;;;;;;;;;5071919;28;20231;-63
2022/10/06 09:15:14;;;;;;;4.82;4.15;;;;;;;;;;5063890;28;20263;-62
2022/10/06 09:17:49;;;;;;;10.02;4.97;;;;;;;;;;5060707;28;20217;-64
2022/10/06 09:20:25;;;;;;;10.43;4.65;;;;;;;;;;5054998;28;20262;-63
2022/10/06 09:22:53;;;;;;;8.73;4.38;;;;;;;;;;5058448;28;20212;-62
2022/10/06 09:25:24;;;;;;;8.38;4.05;;;;;;;;;;5062932;28;23018;-62
2022/10/06 09:27:53;;;;;;;6.78;3.85;;;;;;;;;;5060598;28;20203;-62
2022/10/06 09:30:21;;;;;;;8.25;4.20;;;;;;;;;;5071776;28;20241;-64
2022/10/06 09:32:52;;;;;;;9.50;4.15;;;;;;;;;;5049885;28;20290;-63
2022/10/06 09:35:22;;;;;;;9.65;4.43;;;;;;;;;;5050455;28;20225;-64
2022/10/06 09:38:03;;;;;;;6.47;4.13;;;;;;;;;;5054522;28;20202;-63
2022/10/06 09:40:48;;;;;;;6.15;4.20;;;;;;;;;;5057141;28;20206;-64
2022/10/06 09:43:24;;;;;;;7.70;4.47;;;;;;;;;;5059114;28;20205;-64
2022/10/06 09:45:53;;;;;;;4.40;3.60;;;;;;;;;;5065740;28;20226;-62
2022/10/06 09:48:24;;;;;;;5.25;3.08;;;;;;;;;;5056477;28;20312;-62
2022/10/06 09:51:10;;;;;;;3.22;2.30;;;;;;;;;;5063145;28;20284;-62
2022/10/06 09:53:38;;;;;;;5.03;2.58;;;;;;;;;;5056689;28;20701;-62
2022/10/06 09:56:12;;;;;;;2.50;2.30;;;;;;;;;;5052881;28;20218;-63
2022/10/06 09:58:39;;;;;;;3.83;2.13;;;;;;;;;;5056984;28;20205;-62
2022/10/06 10:01:07;;;;;;;3.13;2.05;;;;;;;;;;5068762;28;20201;-64
2022/10/06 10:03:41;;;;;;;5.43;1.83;;;;;;;;;;5058190;28;20604;-63
2022/10/06 10:06:33;;;;;;;5.82;1.77;;;;;;;;;;5061146;28;20237;-62
2022/10/06 10:09:20;;;;;;;4.13;1.70;;;;;;;;;;5044168;28;20771;-63
2022/10/06 10:14:47;;;;;;;4.85;1.67;;;;;;;;;;5039135;28;20240;-63
2022/10/06 10:17:32;;;;;;;3.60;1.33;;;;;;;;;;5056221;28;20222;-64
2022/10/06 10:20:01;;;;;;;1.55;1.17;;;;;;;;;;5049537;28;20292;-64
2022/10/06 10:22:39;;;;;;;6.63;1.85;;;;;;;;;;5063950;28;20212;-62
2022/10/06 10:25:25;;;;;;;3.63;1.50;;;;;;;;;;5052067;28;20206;-63
2022/10/06 10:27:53;;;;;;;3.15;2.00;;;;;;;;;;5047726;28;20305;-64
2022/10/06 10:30:22;;;;;;;4.03;1.65;;;;;;;;;;5051946;28;20233;-64
2022/10/06 10:32:49;;;;;;;3.25;1.67;;;;;;;;;;5058394;28;20245;-63
2022/10/06 10:35:24;;;;;;;5.68;1.60;;;;;;;;;;5050473;28;20220;-62
2022/10/06 10:37:53;;;;;;;5.30;1.60;;;;;;;;;;5048307;28;20201;-62
2022/10/06 10:40:33;;;;;;;3.30;1.58;;;;;;;;;;5065830;28;20230;-63
2022/10/06 10:43:21;;;;;;;4.05;1.55;;;;;;;;;;5051399;28;20246;-62
2022/10/06 10:45:50;;;;;;;1.65;1.40;;;;;;;;;;5051477;28;20321;-62
2022/10/06 10:48:20;;;;;;;2.65;1.52;;;;;;;;;;5056304;28;20212;-63
2022/10/06 10:50:57;;;;;;;3.88;1.67;;;;;;;;;;5060066;28;20210;-63
2022/10/06 10:53:35;;;;;;;3.40;1.30;;;;;;;;;;5057150;28;20205;-63
2022/10/06 10:56:09;;;;;;;3.58;1.52;;;;;;;;;;5056674;28;20228;-64
2022/10/06 10:58:38;;;;;;;3.92;1.48;;;;;;;;;;5053354;28;20283;-62
2022/10/06 11:01:16;;;;;;;5.53;1.40;;;;;;;;;;5059685;28;20213;-62
2022/10/06 11:03:55;;;;;;;4.72;2.33;;;;;;;;;;5058343;28;20686;-63
2022/10/06 11:06:42;;;;;;;9.30;2.53;;;;;;;;;;5054343;28;20221;-64
2022/10/06 11:09:42;;;;;;;1.27;1.15;;;;;;;;;;5050946;28;20256;-65
2022/10/06 11:12:17;;;;;;;2.97;1.10;;;;;;;;;;5025011;28;20246;-64
2022/10/06 11:14:54;;;;;;;2.38;1.20;;;;;;;;;;5060325;28;20286;-64
2022/10/06 11:17:28;;;;;;;14.02;7.15;;;;;;;;;;5034607;28;20859;-64
2022/10/06 11:20:14;;;;;;;6.00;1.48;;;;;;;;;;5054245;28;20212;-63
2022/10/06 11:22:41;;;;;;;3.50;1.33;;;;;;;;;;5081592;28;20215;-64
2022/10/06 11:25:21;;;;;;;4.85;1.50;;;;;;;;;;5051738;28;20209;-62
2022/10/06 11:27:58;;;;;;;5.57;1.92;;;;;;;;;;5052093;28;21684;-63
2022/10/06 11:30:26;;;;;;;4.70;1.63;;;;;;;;;;5053095;28;20209;-63
2022/10/06 11:33:12;;;;;;;6.22;1.60;;;;;;;;;;5060539;28;20205;-61
2022/10/06 11:35:43;;;;;;;3.50;2.00;;;;;;;;;;5074525;28;20290;-62
2022/10/06 11:38:10;;;;;;;3.00;1.48;;;;;;;;;;5059848;28;20210;-64
2022/10/06 11:40:56;;;;;;;4.82;1.80;;;;;;;;;;5063226;28;20248;-64
2022/10/06 11:43:33;;;;;;;4.05;1.83;;;;;;;;;;5061285;28;20301;-63
2022/10/06 11:46:01;;;;;;;3.95;2.65;;;;;;;;;;5052607;28;20275;-64
2022/10/06 11:48:32;;;;;;;5.65;2.17;;;;;;;;;;5059079;28;20245;-64
2022/10/06 11:51:20;;;;;;;4.68;3.00;;;;;;;;;;5054221;28;20305;-64
2022/10/06 11:53:48;;;;;;;5.88;2.20;;;;;;;;;;5043428;28;20266;-63
2022/10/06 11:56:18;;;;;;;5.82;2.40;;;;;;;;;;5058543;28;20221;-64
2022/10/06 11:58:52;;;;;;;4.22;1.95;;;;;;;;;;5051642;28;20289;-65
2022/10/06 12:01:38;;;;;;;9.38;3.35;;;;;;;;;;5062694;28;20202;-64
2022/10/06 12:04:08;;;;;;;3.47;1.80;;;;;;;;;;5059312;28;20201;-64
2022/10/06 12:06:45;;;;;;;5.85;2.30;;;;;;;;;;5055186;28;20683;-64
2022/10/06 12:09:31;;;;;;;10.13;3.92;;;;;;;;;;5051777;28;20234;-64
2022/10/06 12:11:59;;;;;;;4.22;1.90;;;;;;;;;;5055364;28;20628;-64
2022/10/06 12:14:45;;;;;;;3.97;1.77;;;;;;;;;;5062421;28;20221;-64
2022/10/06 12:17:37;;;;;;;3.60;2.00;;;;;;;;;;5059810;28;20217;-63
2022/10/06 12:20:23;;;;;;;4.15;1.80;;;;;;;;;;5058664;28;20217;-62
2022/10/06 12:22:58;;;;;;;2.85;1.90;;;;;;;;;;5058561;28;20228;-64
2022/10/06 12:25:31;;;;;;;3.08;1.67;;;;;;;;;;5057696;28;20213;-64
2022/10/06 12:28:17;;;;;;;2.60;1.95;;;;;;;;;;5041072;28;20348;-63
2022/10/06 12:31:00;;;;;;;3.10;1.60;;;;;;;;;;5058345;28;20271;-64
2022/10/06 12:33:35;;;;;;;3.30;1.73;;;;;;;;;;5056248;28;20975;-63
2022/10/06 12:36:04;;;;;;;4.05;1.65;;;;;;;;;;5058483;28;20229;-63
2022/10/06 12:38:34;;;;;;;3.95;1.67;;;;;;;;;;5062309;28;20259;-63
2022/10/06 12:41:02;;;;;;;3.38;1.50;;;;;;;;;;5056827;28;20202;-63
2022/10/06 12:43:31;;;;;;;3.85;1.80;;;;;;;;;;5057107;28;20280;-63
2022/10/06 12:46:00;;;;;;;1.92;1.52;;;;;;;;;;5058848;28;20312;-65
2022/10/06 12:48:40;;;;;;;10.38;2.05;;;;;;;;;;5057720;28;20213;-63
2022/10/06 12:51:17;;;;;;;3.78;1.50;;;;;;;;;;5044630;28;20205;-65
2022/10/06 12:53:51;;;;;;;5.38;1.77;;;;;;;;;;5049750;28;20570;-64
2022/10/06 12:56:27;;;;;;;2.28;1.73;;;;;;;;;;5054741;28;20225;-64
2022/10/06 12:58:54;;;;;;;2.97;1.58;;;;;;;;;;5056677;28;20288;-64
2022/10/06 13:01:22;;;;;;;3.22;1.95;;;;;;;;;;5051129;28;20212;-64
2022/10/06 13:03:51;;;;;;;3.80;1.60;;;;;;;;;;5058599;28;20216;-65
2022/10/06 13:06:22;;;;;;;4.20;1.67;;;;;;;;;;5063839;28;20308;-63
2022/10/06 13:09:04;;;;;;;3.03;1.50;;;;;;;;;;5062998;28;20251;-64
2022/10/06 13:11:32;;;;;;;5.00;2.60;;;;;;;;;;5061045;28;20294;-63
2022/10/06 13:14:12;;;;;;;4.15;2.10;;;;;;;;;;5067735;28;20212;-63
2022/10/06 13:16:41;;;;;;;5.07;1.80;;;;;;;;;;5055488;28;20229;-63
2022/10/06 13:19:22;;;;;;;4.05;1.70;;;;;;;;;;5083949;28;20968;-63
2022/10/06 13:21:50;;;;;;;3.75;1.60;;;;;;;;;;5062852;28;20584;-64
2022/10/06 13:24:19;;;;;;;5.38;2.13;;;;;;;;;;5053628;28;20205;-63
2022/10/06 13:26:47;;;;;;;2.45;1.80;;;;;;;;;;5056338;28;20256;-63
2022/10/06 13:29:20;;;;;;;3.72;2.10;;;;;;;;;;5049188;28;21226;-63
2022/10/06 13:31:52;;;;;;;4.35;2.00;;;;;;;;;;5045482;28;20665;-64
2022/10/06 13:34:31;;;;;;;5.80;2.17;;;;;;;;;;5063691;28;20220;-64
2022/10/06 13:36:59;;;;;;;4.22;2.10;;;;;;;;;;5066203;28;20640;-63
2022/10/06 13:39:30;;;;;;;3.25;1.77;;;;;;;;;;5059200;28;20691;-63
2022/10/06 13:42:09;;;;;;;4.07;1.98;;;;;;;;;;5051543;28;20205;-63
2022/10/06 13:44:41;;;;;;;3.35;2.30;;;;;;;;;;5060588;28;20206;-64
2022/10/06 13:47:19;;;;;;;3.83;2.30;;;;;;;;;;5056866;28;20217;-63
2022/10/06 13:49:55;;;;;;;5.45;2.63;;;;;;;;;;5056675;28;20563;-63
2022/10/06 13:52:27;;;;;;;6.88;3.85;;;;;;;;;;5045767;28;20618;-63
2022/10/06 13:54:59;;;;;;;4.97;2.67;;;;;;;;;;5061827;28;20313;-63
2022/10/06 13:57:42;;;;;;;5.38;2.50;;;;;;;;;;5053952;28;20237;-63
2022/10/06 14:00:19;;;;;;;3.28;2.53;;;;;;;;;;5054730;28;20211;-64
2022/10/06 14:02:50;;;;;;;7.57;2.60;;;;;;;;;;5067689;28;20215;-63
2022/10/06 14:05:28;;;;;;;5.25;2.53;;;;;;;;;;5051145;28;20303;-63
2022/10/06 14:07:59;;;;;;;4.13;2.40;;;;;;;;;;5054765;28;20206;-63
2022/10/06 14:10:30;;;;;;;3.90;2.15;;;;;;;;;;5053694;28;20808;-64
2022/10/06 14:12:59;;;;;;;6.45;2.97;;;;;;;;;;5065339;28;20209;-63
2022/10/06 14:15:29;;;;;;;7.60;3.28;;;;;;;;;;5061510;28;21673;-63
2022/10/06 14:17:58;;;;;;;4.80;2.22;;;;;;;;;;5068734;28;20213;-62
2022/10/06 14:20:40;;;;;;;3.90;2.38;;;;;;;;;;5062236;28;20210;-63
2022/10/06 14:23:34;;;;;;;5.35;1.98;;;;;;;;;;5064995;28;20225;-64
2022/10/06 14:26:01;;;;;;;4.93;2.03;;;;;;;;;;5056566;28;20225;-63
2022/10/06 14:28:29;;;;;;;4.88;2.10;;;;;;;;;;5056884;28;20210;-63
2022/10/06 14:30:56;;;;;;;5.88;2.03;;;;;;;;;;5060024;28;20218;-63
2022/10/06 14:33:24;;;;;;;3.30;2.53;;;;;;;;;;5063670;28;20213;-64
2022/10/06 14:35:52;;;;;;;7.50;4.00;;;;;;;;;;5057634;28;20229;-62
2022/10/06 14:38:19;;;;;;;13.57;6.70;;;;;;;;;;5062271;28;20297;-64
2022/10/06 14:40:47;;;;;;;8.95;4.43;;;;;;;;;;5055663;28;20259;-63
2022/10/06 14:43:14;;;;;;;5.80;2.67;;;;;;;;;;5054030;28;20289;-64
2022/10/06 14:45:42;;;;;;;5.15;2.42;;;;;;;;;;5062934;28;20226;-63
2022/10/06 14:48:10;;;;;;;3.90;2.53;;;;;;;;;;5055694;28;20217;-63
2022/10/06 14:50:37;;;;;;;4.85;2.38;;;;;;;;;;5057808;28;20687;-63
2022/10/06 14:53:05;;;;;;;4.03;2.10;;;;;;;;;;5044942;28;20675;-64
2022/10/06 14:55:32;;;;;;;5.28;2.30;;;;;;;;;;5054000;28;20226;-63
2022/10/06 14:57:59;;;;;;;6.97;2.40;;;;;;;;;;5051852;28;20563;-63
2022/10/06 15:00:27;;;;;;;4.38;2.10;;;;;;;;;;5060635;28;20201;-63
2022/10/06 15:02:55;;;;;;;4.32;2.10;;;;;;;;;;5080385;28;20229;-63
2022/10/06 15:05:23;;;;;;;4.05;1.80;;;;;;;;;;5064490;28;20224;-63
2022/10/06 15:08:09;;;;;;;6.63;2.17;;;;;;;;;;5058862;28;20278;-63
2022/10/06 15:10:37;;;;;;;8.25;2.05;;;;;;;;;;5050812;28;20229;-63
2022/10/06 15:13:07;;;;;;;5.80;2.38;;;;;;;;;;5064760;28;20205;-63
2022/10/06 15:15:36;;;;;;;5.13;2.30;;;;;;;;;;5072439;28;20319;-64
2022/10/06 15:18:04;;;;;;;3.22;2.55;;;;;;;;;;5061595;28;20221;-63
2022/10/06 15:20:31;;;;;;;7.20;2.22;;;;;;;;;;5073096;28;20210;-63